Time;durP1;ratioP1;P1;durP2;ratioP2;P2;SDS_P1;SDS_P2;PMS_P1;PMS_P2;Temp;Humidity;BMP_temperature;BMP_pressure;BME280_temperature;BME280_humidity;BME280_pressure;Samples;Min_cycle;Max_cycle;Signal;HPM_P1;HPM_P2
2023/08/10 00:00:23;;;;;;;3.92;1.30;;;;;;;15.53;66.70;100932.16;2058045;28;20063;-70
2023/08/10 00:01:25;;;;;;;6.15;1.70;;;;;;;15.52;67.09;100938.69;2058575;28;20142;-70
2023/08/10 00:02:27;;;;;;;5.70;1.17;;;;;;;15.52;67.05;100941.41;2058365;28;20078;-70
2023/08/10 00:03:29;;;;;;;5.32;1.50;;;;;;;15.52;67.16;100941.41;2066179;28;20038;-70
2023/08/10 00:04:33;;;;;;;6.25;1.35;;;;;;;15.53;67.16;100941.06;2066765;28;20243;-70
2023/08/10 00:05:38;;;;;;;7.05;1.35;;;;;;;15.55;67.07;100940.00;2074215;28;20765;-70
2023/08/10 00:06:41;;;;;;;6.00;1.33;;;;;;;15.55;66.88;100937.28;2050478;28;20115;-70
2023/08/10 00:07:43;;;;;;;6.03;1.35;;;;;;;15.55;66.99;100942.69;2059130;28;20039;-69
2023/08/10 00:08:45;;;;;;;7.13;1.35;;;;;;;15.53;66.64;100938.38;2057584;28;20059;-69
2023/08/10 00:09:46;;;;;;;5.88;1.60;;;;;;;15.51;66.79;100935.19;2047920;28;20038;-70
2023/08/10 00:10:50;;;;;;;5.57;1.48;;;;;;;15.52;66.57;100936.78;2066212;28;20125;-70
2023/08/10 00:11:52;;;;;;;4.78;1.20;;;;;;;15.51;66.86;100935.19;2065690;28;20165;-70
2023/08/10 00:12:53;;;;;;;5.15;1.25;;;;;;;15.49;66.59;100942.78;2058076;28;20091;-70
2023/08/10 00:13:55;;;;;;;6.88;1.67;;;;;;;15.50;66.84;100938.97;2057920;28;20019;-70
2023/08/10 00:14:57;;;;;;;6.00;1.40;;;;;;;15.49;66.41;100947.41;2058196;28;20102;-70
2023/08/10 00:15:58;;;;;;;7.57;1.20;;;;;;;15.48;66.61;100946.63;2050346;28;20031;-70
2023/08/10 00:17:00;;;;;;;8.48;2.05;;;;;;;15.46;66.77;100948.81;2042232;28;20094;-70
2023/08/10 00:18:04;;;;;;;8.13;1.40;;;;;;;15.42;66.25;100944.31;2058412;28;20031;-71
2023/08/10 00:19:06;;;;;;;10.30;1.25;;;;;;;15.39;66.76;100948.44;2066271;28;20039;-71
2023/08/10 00:20:11;;;;;;;8.73;1.48;;;;;;;15.37;66.60;100947.91;2058130;28;20863;-70
2023/08/10 00:21:15;;;;;;;5.45;1.33;;;;;;;15.34;66.66;100943.09;2067396;28;20030;-70
2023/08/10 00:22:17;;;;;;;6.15;1.38;;;;;;;15.34;66.73;100945.81;2074340;28;20027;-70
2023/08/10 00:23:19;;;;;;;8.43;1.33;;;;;;;15.34;67.22;100945.81;2065578;28;20042;-70
2023/08/10 00:24:21;;;;;;;5.38;0.93;;;;;;;15.32;66.65;100942.63;2058084;28;20058;-70
2023/08/10 00:25:26;;;;;;;9.85;1.42;;;;;;;15.27;66.73;100940.00;2058226;28;20161;-70
2023/08/10 00:26:28;;;;;;;3.10;0.98;;;;;;;15.26;67.09;100941.91;2066263;28;20098;-71
2023/08/10 00:27:35;;;;;;;6.03;2.00;;;;;;;15.27;67.42;100940.78;2066745;28;20034;-71
2023/08/10 00:28:36;;;;;;;7.75;1.17;;;;;;;15.26;66.96;100943.81;2058124;28;20051;-71
2023/08/10 00:29:40;;;;;;;7.88;1.08;;;;;;;15.23;67.22;100941.69;2066156;28;20041;-71
2023/08/10 00:30:42;;;;;;;6.95;1.80;;;;;;;15.20;67.07;100947.72;2057897;28;20042;-71
2023/08/10 00:31:44;;;;;;;8.02;1.20;;;;;;;15.18;67.46;100948.00;2050104;28;20146;-71
2023/08/10 00:32:46;;;;;;;9.38;1.38;;;;;;;15.20;67.27;100950.44;2050281;28;20856;-71
2023/08/10 00:33:50;;;;;;;7.78;1.75;;;;;;;15.19;67.15;100938.75;2050469;28;20063;-71
2023/08/10 00:34:52;;;;;;;7.25;1.60;;;;;;;15.21;67.22;100952.03;2050440;28;20140;-71
2023/08/10 00:35:53;;;;;;;4.93;1.30;;;;;;;15.23;67.45;100947.13;2057862;28;20031;-71
2023/08/10 00:36:55;;;;;;;5.22;1.10;;;;;;;15.23;67.16;100945.22;2058135;28;20035;-70
2023/08/10 00:37:57;;;;;;;5.30;1.38;;;;;;;15.21;66.78;100941.19;2058261;28;20034;-70
2023/08/10 00:39:02;;;;;;;7.28;1.50;;;;;;;15.16;66.88;100930.44;2049698;28;20115;-70
2023/08/10 00:40:11;;;;;;;4.50;1.08;;;;;;;15.20;67.37;100939.59;2050526;28;20130;-70
2023/08/10 00:41:12;;;;;;;5.75;1.45;;;;;;;15.22;66.86;100934.66;2067499;28;20043;-70
2023/08/10 00:42:14;;;;;;;6.03;1.10;;;;;;;15.21;66.89;100942.00;2057527;28;20035;-70
2023/08/10 00:43:16;;;;;;;3.80;1.00;;;;;;;15.23;67.26;100936.28;2058269;28;20041;-70
2023/08/10 00:44:18;;;;;;;5.70;1.25;;;;;;;15.24;67.00;100940.59;2057909;28;20134;-70
2023/08/10 00:45:20;;;;;;;5.22;1.73;;;;;;;15.21;66.87;100936.56;2057984;28;20047;-70
2023/08/10 00:46:22;;;;;;;7.35;1.20;;;;;;;15.22;66.81;100942.78;2066309;28;20026;-70
2023/08/10 00:47:25;;;;;;;4.53;1.30;;;;;;;15.20;66.83;100939.59;2058074;28;20043;-70
2023/08/10 00:48:28;;;;;;;4.28;1.60;;;;;;;15.19;66.64;100944.19;2050039;28;20035;-70
2023/08/10 00:49:31;;;;;;;4.78;1.20;;;;;;;15.14;66.58;100943.50;2057876;28;20190;-70
2023/08/10 00:50:35;;;;;;;4.93;1.25;;;;;;;15.10;66.63;100942.47;2050861;28;20067;-70
2023/08/10 00:51:39;;;;;;;6.47;1.50;;;;;;;15.06;66.87;100947.69;2058702;28;20043;-70
2023/08/10 00:52:41;;;;;;;5.05;1.40;;;;;;;15.00;66.83;100938.84;2066050;28;20845;-69
2023/08/10 00:53:43;;;;;;;11.75;1.55;;;;;;;15.00;67.16;100936.13;2057793;28;20065;-69
2023/08/10 00:54:46;;;;;;;6.93;1.20;;;;;;;15.02;66.97;100941.28;2066074;28;20094;-69
2023/08/10 00:55:51;;;;;;;10.43;1.90;;;;;;;14.95;67.46;100935.44;2066041;28;20038;-69
2023/08/10 00:56:53;;;;;;;6.65;1.20;;;;;;;14.97;67.54;100938.63;2050766;28;20039;-69
2023/08/10 00:57:54;;;;;;;4.80;1.30;;;;;;;15.00;67.42;100935.34;2057897;28;20043;-69
2023/08/10 00:58:57;;;;;;;5.07;1.23;;;;;;;15.03;67.50;100938.25;2058052;28;20129;-70
2023/08/10 00:59:59;;;;;;;7.03;1.10;;;;;;;15.05;68.03;100932.53;2066102;28;20031;-69
2023/08/10 01:01:05;;;;;;;5.95;1.30;;;;;;;15.07;67.66;100933.84;2066459;28;20030;-70
2023/08/10 01:02:09;;;;;;;5.88;1.30;;;;;;;15.09;67.54;100938.16;2058337;28;20137;-69
2023/08/10 01:03:11;;;;;;;5.00;1.38;;;;;;;15.06;67.00;100934.94;2050065;28;20134;-70
2023/08/10 01:04:13;;;;;;;5.53;1.50;;;;;;;15.02;67.49;100928.53;2066016;28;20097;-70
2023/08/10 01:05:15;;;;;;;3.90;1.20;;;;;;;14.98;67.30;100932.94;2065642;28;20740;-69
2023/08/10 01:06:22;;;;;;;6.18;1.30;;;;;;;14.93;67.35;100930.31;2058053;28;20085;-69
2023/08/10 01:07:43;;;;;;;8.93;1.65;;;;;;;14.90;67.45;100930.91;2066621;28;20031;-70
2023/08/10 01:09:06;;;;;;;7.70;1.40;;;;;;;14.89;67.60;100936.63;2068733;28;20027;-70
2023/08/10 01:10:15;;;;;;;6.60;1.55;;;;;;;14.87;67.32;100936.91;2049477;28;20870;-70
2023/08/10 01:11:35;;;;;;;7.47;1.60;;;;;;;14.86;67.36;100935.31;2050874;28;20083;-69
2023/08/10 01:12:48;;;;;;;3.92;1.35;;;;;;;14.88;67.68;100937.72;2063190;28;20026;-70
2023/08/10 01:14:00;;;;;;;6.18;1.60;;;;;;;14.88;67.61;100935.84;2067440;28;20065;-70
2023/08/10 01:15:44;;;;;;;3.85;1.20;;;;;;;14.89;67.84;100934.72;2044775;28;20099;-70
2023/08/10 01:16:51;;;;;;;4.03;1.30;;;;;;;14.91;67.57;100931.72;2064687;28;20158;-70
2023/08/10 01:18:05;;;;;;;6.00;1.30;;;;;;;14.91;67.37;100937.94;2058284;28;20075;-70
2023/08/10 01:19:18;;;;;;;2.47;1.08;;;;;;;14.88;67.30;100927.72;2067476;28;20043;-71
2023/08/10 01:20:22;;;;;;;7.90;1.35;;;;;;;14.88;67.01;100927.72;2067691;28;20037;-70
2023/08/10 01:21:48;;;;;;;4.97;1.30;;;;;;;14.83;67.16;100928.59;2073162;28;20061;-71
2023/08/10 01:23:00;;;;;;;4.10;1.20;;;;;;;14.80;67.61;100929.19;2059959;28;20898;-70
2023/08/10 01:24:14;;;;;;;6.63;1.25;;;;;;;14.79;67.38;100932.22;2057395;28;20133;-70
2023/08/10 01:25:16;;;;;;;2.90;1.25;;;;;;;14.79;67.61;100940.34;2066951;28;20070;-70
2023/08/10 01:26:21;;;;;;;4.55;1.20;;;;;;;14.77;67.47;100927.06;2066280;28;20046;-70
2023/08/10 01:27:23;;;;;;;5.65;1.00;;;;;;;14.73;67.70;100936.91;2073995;28;20138;-70
2023/08/10 01:28:27;;;;;;;5.20;1.25;;;;;;;14.70;67.86;100929.38;2065947;28;21023;-70
2023/08/10 01:29:30;;;;;;;4.32;1.15;;;;;;;14.68;67.96;100933.47;2073853;28;20027;-70
2023/08/10 01:30:31;;;;;;;4.78;1.30;;;;;;;14.66;68.16;100930.25;2065306;28;20042;-70
2023/08/10 01:31:32;;;;;;;6.75;1.30;;;;;;;14.64;68.37;100927.84;2049966;28;20965;-71
2023/08/10 01:32:36;;;;;;;2.20;1.00;;;;;;;14.64;67.96;100930.56;2057631;28;20035;-70
2023/08/10 01:33:38;;;;;;;3.42;1.20;;;;;;;14.64;68.07;100927.84;2074266;28;20041;-70
2023/08/10 01:34:40;;;;;;;5.20;1.20;;;;;;;14.63;68.47;100930.84;2057684;28;20084;-70
2023/08/10 01:35:44;;;;;;;5.53;1.15;;;;;;;14.62;68.44;100931.94;2050938;28;20954;-71
2023/08/10 01:36:49;;;;;;;5.85;1.10;;;;;;;14.59;68.36;100923.31;2049657;28;20048;-70
2023/08/10 01:37:51;;;;;;;3.03;1.10;;;;;;;14.62;68.15;100929.25;2050979;28;20870;-70
2023/08/10 01:38:53;;;;;;;4.13;1.17;;;;;;;14.62;68.33;100931.94;2049655;28;20039;-72
2023/08/10 01:39:57;;;;;;;6.53;1.20;;;;;;;14.57;68.31;100925.53;2057051;28;20031;-71
2023/08/10 01:40:58;;;;;;;4.30;1.20;;;;;;;14.55;67.98;100924.22;2058116;28;20031;-70
2023/08/10 01:42:00;;;;;;;8.45;1.75;;;;;;;14.52;68.16;100925.59;2057730;28;20027;-70
2023/08/10 01:43:02;;;;;;;8.40;1.20;;;;;;;14.49;67.99;100926.16;2065569;28;20030;-70
2023/08/10 01:44:05;;;;;;;3.28;1.13;;;;;;;14.46;68.28;100924.03;2065779;28;20035;-69
2023/08/10 01:45:09;;;;;;;6.95;1.38;;;;;;;14.44;68.31;100928.97;2049730;28;20760;-69
2023/08/10 01:46:18;;;;;;;7.40;1.02;;;;;;;14.41;68.74;100929.56;2066181;28;21250;-69
2023/08/10 01:47:26;;;;;;;6.32;1.20;;;;;;;14.38;68.64;100928.25;2058016;28;20889;-70
2023/08/10 01:48:35;;;;;;;4.90;1.40;;;;;;;14.34;68.61;100929.09;2051064;28;20331;-70
2023/08/10 01:49:38;;;;;;;7.00;1.27;;;;;;;14.35;68.40;100938.84;2059426;28;20930;-71
2023/08/10 01:50:44;;;;;;;3.70;0.93;;;;;;;14.31;68.55;100929.69;2049886;28;20135;-71
2023/08/10 01:51:47;;;;;;;2.75;1.00;;;;;;;14.28;68.53;100930.28;2050413;28;20043;-70
2023/08/10 01:52:56;;;;;;;6.47;1.13;;;;;;;14.26;69.04;100933.28;2058369;28;20973;-71
2023/08/10 01:54:01;;;;;;;3.67;1.20;;;;;;;14.27;69.22;100929.47;2066928;28;20027;-71
2023/08/10 01:55:07;;;;;;;5.85;1.45;;;;;;;14.31;69.28;100935.09;2073269;28;20061;-71
2023/08/10 01:56:09;;;;;;;9.82;1.23;;;;;;;14.33;69.02;100936.44;2057719;28;20045;-71
2023/08/10 01:57:11;;;;;;;6.05;1.05;;;;;;;14.37;69.42;100940.16;2065539;28;20031;-71
2023/08/10 01:58:13;;;;;;;6.90;1.40;;;;;;;14.39;69.00;100939.84;2073522;28;20152;-71
2023/08/10 01:59:15;;;;;;;4.85;1.20;;;;;;;14.40;69.10;100946.06;2057575;28;20063;-70
2023/08/10 02:00:17;;;;;;;5.57;1.10;;;;;;;14.41;68.99;100944.97;2065585;28;20839;-69
2023/08/10 02:01:22;;;;;;;6.85;1.00;;;;;;;14.42;69.09;100947.38;2065960;28;20094;-70
2023/08/10 02:02:24;;;;;;;7.25;1.45;;;;;;;14.44;69.06;100947.91;2073480;28;20074;-69
2023/08/10 02:03:26;;;;;;;4.63;1.10;;;;;;;14.41;69.62;100944.97;2057624;28;20085;-70
2023/08/10 02:04:31;;;;;;;5.28;1.10;;;;;;;14.39;69.34;100947.97;2058465;28;20130;-71
2023/08/10 02:05:33;;;;;;;6.70;1.27;;;;;;;14.35;69.70;100952.38;2057154;28;20126;-70
2023/08/10 02:06:40;;;;;;;2.60;1.10;;;;;;;14.35;69.33;100949.66;2057790;28;20035;-70
2023/08/10 02:07:48;;;;;;;4.88;1.00;;;;;;;14.37;69.78;100952.88;2066508;28;20762;-70
2023/08/10 02:08:50;;;;;;;3.47;1.17;;;;;;;14.39;69.70;100958.78;2050251;28;20096;-70
2023/08/10 02:09:52;;;;;;;7.90;1.10;;;;;;;14.38;69.21;100951.78;2049377;28;20035;-70
2023/08/10 02:10:54;;;;;;;6.93;1.48;;;;;;;14.32;69.58;100953.75;2065753;28;20027;-70
2023/08/10 02:11:59;;;;;;;4.20;1.15;;;;;;;14.30;69.76;100952.44;2057557;28;20040;-70
2023/08/10 02:13:01;;;;;;;5.72;1.42;;;;;;;14.28;69.86;100954.63;2057534;28;20086;-70
2023/08/10 02:14:02;;;;;;;4.68;1.20;;;;;;;14.27;70.10;100948.41;2049111;28;20063;-70
2023/08/10 02:15:12;;;;;;;2.80;1.15;;;;;;;14.26;70.13;100954.13;2050078;28;20036;-70
2023/08/10 02:16:15;;;;;;;4.60;1.13;;;;;;;14.28;70.01;100946.50;2050478;28;20883;-70
2023/08/10 02:17:19;;;;;;;4.45;1.33;;;;;;;14.30;69.85;100949.75;2049439;28;20024;-70
2023/08/10 02:18:23;;;;;;;3.25;1.02;;;;;;;14.31;69.83;100945.94;2050628;28;20027;-69
2023/08/10 02:19:25;;;;;;;5.90;1.38;;;;;;;14.32;70.10;100944.84;2056703;28;20035;-70
2023/08/10 02:20:26;;;;;;;5.05;1.10;;;;;;;14.33;70.17;100949.94;2049415;28;20134;-69
2023/08/10 02:21:28;;;;;;;4.13;1.10;;;;;;;14.33;70.18;100951.84;2057306;28;20137;-70
2023/08/10 02:22:31;;;;;;;3.17;1.05;;;;;;;14.35;70.36;100957.78;2057176;28;20082;-70
2023/08/10 02:23:32;;;;;;;4.35;1.20;;;;;;;14.29;69.84;100953.56;2049306;28;20074;-70
2023/08/10 02:24:33;;;;;;;3.97;0.90;;;;;;;14.27;70.08;100956.53;2049029;28;20787;-71
2023/08/10 02:25:35;;;;;;;4.93;1.05;;;;;;;14.29;70.41;100953.56;2041591;28;20048;-71
2023/08/10 02:26:36;;;;;;;9.45;1.05;;;;;;;14.29;70.44;100948.13;2033637;28;20948;-71
2023/08/10 02:27:40;;;;;;;4.57;1.10;;;;;;;14.34;70.33;100956.16;2042839;28;20093;-70
2023/08/10 02:28:45;;;;;;;4.75;1.15;;;;;;;14.37;70.35;100951.00;2041247;28;20083;-71
2023/08/10 02:29:46;;;;;;;2.47;0.98;;;;;;;14.35;70.47;100953.19;2041788;28;20143;-71
2023/08/10 02:30:48;;;;;;;4.75;1.33;;;;;;;14.32;70.21;100947.56;2033440;28;20070;-71
2023/08/10 02:31:51;;;;;;;5.05;1.15;;;;;;;14.29;70.48;100951.66;2042291;28;20051;-71
2023/08/10 02:32:53;;;;;;;4.85;1.02;;;;;;;14.30;70.31;100947.03;2056989;28;20118;-71
2023/08/10 02:33:57;;;;;;;5.85;1.30;;;;;;;14.32;70.76;100958.38;2050211;28;20133;-71
2023/08/10 02:34:59;;;;;;;4.07;1.20;;;;;;;14.35;70.87;100955.88;2041480;28;20111;-71
2023/08/10 02:36:06;;;;;;;4.10;1.33;;;;;;;14.38;70.61;100954.50;2043468;28;20151;-71
2023/08/10 02:37:10;;;;;;;6.63;1.42;;;;;;;14.41;70.51;100955.78;2057426;28;20037;-71
2023/08/10 02:38:12;;;;;;;4.13;1.10;;;;;;;14.44;70.79;100952.50;2049740;28;20028;-71
2023/08/10 02:39:14;;;;;;;3.97;1.05;;;;;;;14.46;70.49;100944.91;2049482;28;20024;-71
2023/08/10 02:40:21;;;;;;;3.08;1.00;;;;;;;14.47;70.65;100947.31;2057823;28;20953;-71
2023/08/10 02:41:22;;;;;;;4.55;1.20;;;;;;;14.50;70.31;100952.16;2065765;28;20913;-70
2023/08/10 02:42:26;;;;;;;3.22;0.90;;;;;;;14.49;70.50;100960.53;2065204;28;20121;-70
2023/08/10 02:43:28;;;;;;;1.38;1.15;;;;;;;14.48;70.33;100957.03;2065395;28;20035;-70
2023/08/10 02:44:30;;;;;;;2.35;1.30;;;;;;;14.50;70.29;100949.44;2049230;28;20076;-70
2023/08/10 02:45:32;;;;;;;4.25;1.40;;;;;;;14.52;70.28;100955.38;2049880;28;20210;-70
2023/08/10 02:46:34;;;;;;;4.70;1.30;;;;;;;14.53;70.27;100954.28;2050736;28;20789;-70
2023/08/10 02:47:36;;;;;;;6.88;1.45;;;;;;;14.52;70.14;100952.66;2050622;28;20044;-70
2023/08/10 02:48:38;;;;;;;4.50;1.17;;;;;;;14.50;70.19;100949.44;2059080;28;20074;-70
2023/08/10 02:49:44;;;;;;;2.97;0.93;;;;;;;14.50;70.42;100943.19;2058787;28;20027;-70
2023/08/10 02:50:45;;;;;;;2.33;1.00;;;;;;;14.50;70.19;100946.72;2054575;28;20835;-70
2023/08/10 02:51:47;;;;;;;4.82;1.00;;;;;;;14.53;70.22;100948.88;2050388;28;20101;-70
2023/08/10 02:52:49;;;;;;;2.60;1.10;;;;;;;14.55;70.16;100946.66;2050839;28;20890;-70
2023/08/10 02:53:52;;;;;;;3.60;1.13;;;;;;;14.56;70.34;100947.47;2058569;28;20027;-70
2023/08/10 02:54:56;;;;;;;4.35;1.10;;;;;;;14.58;70.15;100946.06;2059337;28;20927;-70
2023/08/10 02:55:58;;;;;;;6.50;1.45;;;;;;;14.57;70.09;100943.69;2059149;28;20149;-70
2023/08/10 02:56:59;;;;;;;8.18;1.77;;;;;;;14.54;70.12;100945.06;2058599;28;20027;-70
2023/08/10 02:58:01;;;;;;;3.88;1.17;;;;;;;14.51;70.16;100942.94;2050540;28;20142;-70
2023/08/10 02:59:02;;;;;;;3.65;0.98;;;;;;;14.50;70.18;100954.84;2050528;28;20036;-70
2023/08/10 03:00:06;;;;;;;2.92;1.13;;;;;;;14.48;69.91;100959.75;2050546;28;20824;-70
2023/08/10 03:01:08;;;;;;;3.55;0.80;;;;;;;14.49;70.40;100950.50;2051748;28;20040;-71
2023/08/10 03:02:14;;;;;;;3.83;1.10;;;;;;;14.49;70.28;100958.63;2050718;28;20059;-70
2023/08/10 03:03:17;;;;;;;3.63;1.13;;;;;;;14.52;70.14;100963.47;2059858;28;20043;-69
2023/08/10 03:04:18;;;;;;;2.08;1.10;;;;;;;14.50;70.33;100960.25;2058398;28;20894;-70
2023/08/10 03:05:19;;;;;;;3.58;1.10;;;;;;;14.48;70.26;100958.94;2050494;28;20871;-70
2023/08/10 03:06:21;;;;;;;4.53;1.20;;;;;;;14.47;70.31;100963.56;2050473;28;20070;-70
2023/08/10 03:07:22;;;;;;;4.13;1.05;;;;;;;14.47;70.76;100960.00;2058759;28;20917;-70
2023/08/10 03:08:24;;;;;;;7.45;1.35;;;;;;;14.47;70.46;100968.97;2066627;28;20035;-70
2023/08/10 03:09:28;;;;;;;3.47;1.02;;;;;;;14.48;70.68;100962.44;2050581;28;20146;-70
2023/08/10 03:10:29;;;;;;;4.47;1.17;;;;;;;14.46;70.57;100967.34;2043950;28;20091;-70
2023/08/10 03:11:32;;;;;;;3.22;1.92;;;;;;;14.46;71.00;100966.53;2050408;28;20844;-70
2023/08/10 03:12:35;;;;;;;3.78;1.33;;;;;;;14.42;70.83;100963.63;2058554;28;20027;-70
2023/08/10 03:13:37;;;;;;;2.88;1.00;;;;;;;14.44;70.77;100960.59;2050805;28;20887;-70
2023/08/10 03:14:39;;;;;;;8.18;1.30;;;;;;;14.43;70.94;100962.50;2042787;28;20029;-69
2023/08/10 03:15:41;;;;;;;2.28;1.40;;;;;;;14.43;70.82;100964.41;2050590;28;20240;-70
2023/08/10 03:16:43;;;;;;;3.13;1.25;;;;;;;14.43;71.03;100967.91;2050352;28;20055;-70
2023/08/10 03:17:48;;;;;;;1.58;1.10;;;;;;;14.42;70.82;100966.31;2058867;28;20043;-69
2023/08/10 03:18:50;;;;;;;2.53;1.20;;;;;;;14.39;70.83;100964.22;2066403;28;20134;-70
2023/08/10 03:19:53;;;;;;;3.30;1.02;;;;;;;14.38;70.96;100966.13;2058270;28;20043;-70
2023/08/10 03:20:57;;;;;;;5.85;1.30;;;;;;;14.41;71.27;100963.91;2043194;28;20032;-70
2023/08/10 03:21:59;;;;;;;6.10;1.10;;;;;;;14.41;71.17;100966.59;2058670;28;20113;-70
2023/08/10 03:23:02;;;;;;;6.63;1.33;;;;;;;14.40;71.24;100971.22;2058893;28;20033;-70
2023/08/10 03:24:05;;;;;;;3.55;0.98;;;;;;;14.40;71.51;100971.22;2066289;28;20066;-70
2023/08/10 03:25:08;;;;;;;3.10;1.00;;;;;;;14.41;71.34;100972.84;2066138;28;20035;-70
2023/08/10 03:26:10;;;;;;;5.43;1.83;;;;;;;14.44;71.71;100972.25;2059167;28;20781;-70
2023/08/10 03:27:14;;;;;;;8.73;1.60;;;;;;;14.49;71.63;100974.88;2066423;28;20861;-70
2023/08/10 03:28:16;;;;;;;2.72;1.30;;;;;;;14.49;71.57;100974.88;2066842;28;20022;-69
2023/08/10 03:29:18;;;;;;;3.08;1.02;;;;;;;14.51;71.50;100978.13;2050202;28;20039;-70
2023/08/10 03:30:20;;;;;;;3.72;1.42;;;;;;;14.51;71.42;100978.13;2058634;28;20107;-70
2023/08/10 03:31:23;;;;;;;2.40;0.98;;;;;;;14.54;71.64;100976.72;2058561;28;20893;-70
2023/08/10 03:32:25;;;;;;;3.40;1.15;;;;;;;14.54;71.82;100976.72;2058595;28;20028;-70
2023/08/10 03:33:27;;;;;;;6.07;0.93;;;;;;;14.55;71.58;100979.13;2066500;28;20031;-70
2023/08/10 03:34:29;;;;;;;6.05;1.30;;;;;;;14.55;71.96;100979.13;2074546;28;20190;-70
2023/08/10 03:35:32;;;;;;;3.65;1.00;;;;;;;14.58;71.76;100973.13;2058379;28;20091;-70
2023/08/10 03:36:34;;;;;;;8.73;1.02;;;;;;;14.59;71.81;100971.22;2050633;28;20036;-70
2023/08/10 03:37:35;;;;;;;2.38;1.10;;;;;;;14.58;71.98;100972.34;2050087;28;20115;-70
2023/08/10 03:38:40;;;;;;;4.03;1.00;;;;;;;14.60;71.73;100976.34;2059775;28;20035;-70
2023/08/10 03:39:41;;;;;;;5.65;1.58;;;;;;;14.61;71.95;100971.75;2074154;28;20853;-70
2023/08/10 03:40:43;;;;;;;4.03;1.00;;;;;;;14.62;71.97;100975.25;2066695;28;20031;-70
2023/08/10 03:41:45;;;;;;;5.47;1.13;;;;;;;14.64;71.85;100973.06;2074603;28;20042;-70
2023/08/10 03:42:47;;;;;;;2.63;0.95;;;;;;;14.66;71.98;100985.19;2050670;28;20804;-70
2023/08/10 03:43:49;;;;;;;5.32;1.40;;;;;;;14.64;72.09;100970.34;2050742;28;20027;-70
2023/08/10 03:44:51;;;;;;;3.97;1.60;;;;;;;14.66;71.83;100981.66;2050252;28;20122;-70
2023/08/10 03:45:53;;;;;;;2.53;1.40;;;;;;;14.69;72.11;100981.06;2050814;28;20882;-70
2023/08/10 03:46:54;;;;;;;5.43;1.20;;;;;;;14.71;72.03;100976.19;2058382;28;20089;-69
2023/08/10 03:47:57;;;;;;;4.50;1.23;;;;;;;14.74;71.80;100981.00;2042832;28;20995;-69
2023/08/10 03:48:59;;;;;;;2.35;1.02;;;;;;;14.75;72.04;100979.91;2050205;28;20036;-70
2023/08/10 03:50:00;;;;;;;2.70;0.95;;;;;;;14.76;71.76;100979.63;2058282;28;20043;-70
2023/08/10 03:51:03;;;;;;;3.70;1.10;;;;;;;14.78;71.70;100984.72;2050491;28;20040;-70
2023/08/10 03:52:06;;;;;;;6.40;1.17;;;;;;;14.79;71.99;100979.03;2058437;28;20159;-70
2023/08/10 03:53:07;;;;;;;4.10;1.20;;;;;;;14.77;71.71;100970.38;2058601;28;20039;-70
2023/08/10 03:54:09;;;;;;;1.55;1.05;;;;;;;14.83;71.76;100974.63;2066526;28;20952;-70
2023/08/10 03:55:14;;;;;;;4.38;1.27;;;;;;;14.89;71.62;100982.66;2058240;28;20042;-70
2023/08/10 03:56:19;;;;;;;5.55;1.10;;;;;;;14.92;71.30;100977.44;2059773;28;20934;-70
2023/08/10 03:57:23;;;;;;;4.18;1.10;;;;;;;14.97;71.43;100979.25;2065673;28;20842;-70
2023/08/10 03:58:28;;;;;;;3.38;0.90;;;;;;;14.99;71.13;100977.88;2058598;28;20814;-70
2023/08/10 03:59:31;;;;;;;2.35;1.00;;;;;;;15.04;71.17;100983.19;2059883;28;20039;-70
2023/08/10 04:00:33;;;;;;;4.00;0.98;;;;;;;15.06;71.27;100978.28;2066106;28;20031;-70
2023/08/10 04:01:41;;;;;;;4.88;1.10;;;;;;;15.09;71.17;100981.50;2074422;28;20755;-70
2023/08/10 04:02:44;;;;;;;4.18;1.05;;;;;;;15.12;70.87;100980.91;2066182;28;20819;-70
2023/08/10 04:03:46;;;;;;;2.17;1.05;;;;;;;15.13;70.56;100974.38;2066799;28;20038;-70
2023/08/10 04:04:49;;;;;;;3.42;1.05;;;;;;;15.13;70.66;100980.63;2074108;28;20039;-70
2023/08/10 04:05:53;;;;;;;4.57;1.10;;;;;;;15.15;70.50;100980.31;2066183;28;20030;-70
2023/08/10 04:06:55;;;;;;;7.20;1.17;;;;;;;15.17;70.37;100980.81;2058819;28;20099;-70
2023/08/10 04:07:57;;;;;;;1.52;1.10;;;;;;;15.17;70.38;100978.09;2066234;28;20811;-70
2023/08/10 04:08:59;;;;;;;3.13;1.15;;;;;;;15.17;70.55;100975.41;2058594;28;20031;-70
2023/08/10 04:10:01;;;;;;;4.95;1.10;;;;;;;15.18;70.41;100977.00;2058485;28;20034;-70
2023/08/10 04:11:03;;;;;;;5.88;1.10;;;;;;;15.18;70.73;100974.28;2050196;28;20024;-70
2023/08/10 04:12:05;;;;;;;5.03;1.20;;;;;;;15.19;70.49;100973.97;2058228;28;20035;-70
2023/08/10 04:13:10;;;;;;;4.22;1.10;;;;;;;15.19;70.49;100973.97;2050118;28;20052;-70
2023/08/10 04:14:12;;;;;;;1.58;0.95;;;;;;;15.19;70.21;100970.47;2059170;28;20027;-70
2023/08/10 04:15:14;;;;;;;3.85;1.10;;;;;;;15.19;70.25;100976.69;2074356;28;20101;-71
2023/08/10 04:16:17;;;;;;;3.58;1.50;;;;;;;15.21;70.62;100968.28;2074236;28;20901;-71
2023/08/10 04:17:19;;;;;;;3.72;1.33;;;;;;;15.22;70.80;100972.56;2058293;28;20086;-71
2023/08/10 04:18:21;;;;;;;7.13;1.45;;;;;;;15.24;71.24;100973.09;2066370;28;20046;-71
2023/08/10 04:19:23;;;;;;;4.90;1.20;;;;;;;15.26;71.14;100971.69;2066045;28;20035;-71
2023/08/10 04:20:24;;;;;;;2.45;1.25;;;;;;;15.28;70.81;100968.69;2066545;28;20941;-71
2023/08/10 04:21:29;;;;;;;3.47;1.00;;;;;;;15.27;70.64;100972.50;2074195;28;20133;-71
2023/08/10 04:22:31;;;;;;;4.53;1.10;;;;;;;15.26;70.47;100974.41;2074003;28;20049;-71
2023/08/10 04:23:31;;;;;;;6.10;1.00;;;;;;;15.24;70.68;100967.69;2066265;28;21338;-71
2023/08/10 04:24:33;;;;;;;2.63;1.27;;;;;;;15.26;70.55;100974.41;2065492;28;20050;-71
2023/08/10 04:25:35;;;;;;;4.95;1.65;;;;;;;15.29;70.97;100968.38;2050012;28;20055;-71
2023/08/10 04:26:38;;;;;;;4.20;1.20;;;;;;;15.33;70.70;100976.72;2058157;28;20035;-71
2023/08/10 04:27:42;;;;;;;1.48;1.05;;;;;;;15.35;70.47;100979.13;2066786;28;20046;-71
2023/08/10 04:28:43;;;;;;;3.65;1.05;;;;;;;15.37;70.64;100974.22;2074155;28;20033;-71
2023/08/10 04:29:49;;;;;;;5.40;1.25;;;;;;;15.36;70.57;100973.41;2082012;28;20026;-70
2023/08/10 04:30:50;;;;;;;2.08;1.10;;;;;;;15.36;70.59;100973.41;2074266;28;20864;-71
2023/08/10 04:31:52;;;;;;;4.25;1.30;;;;;;;15.36;70.51;100976.13;2058084;28;20882;-71
2023/08/10 04:32:53;;;;;;;4.63;1.20;;;;;;;15.36;70.69;100970.69;2050324;28;20214;-71
2023/08/10 04:33:54;;;;;;;6.47;1.10;;;;;;;15.35;70.41;100973.69;2066235;28;20858;-71
2023/08/10 04:34:57;;;;;;;6.38;1.35;;;;;;;15.35;70.73;100979.91;2066126;28;20775;-70
2023/08/10 04:36:02;;;;;;;3.03;1.27;;;;;;;15.38;70.65;100979.31;2058700;28;20831;-70
2023/08/10 04:37:06;;;;;;;4.05;1.15;;;;;;;15.40;70.53;100974.41;2074877;28;20030;-70
2023/08/10 04:38:10;;;;;;;4.32;1.25;;;;;;;15.40;70.27;100971.69;2074158;28;20034;-70
2023/08/10 04:39:11;;;;;;;6.30;1.45;;;;;;;15.42;70.16;100966.78;2058144;28;20037;-70
2023/08/10 04:40:13;;;;;;;4.60;1.63;;;;;;;15.43;70.66;100968.38;2042070;28;20043;-70
2023/08/10 04:41:15;;;;;;;3.15;1.05;;;;;;;15.42;69.92;100969.50;2050496;28;20788;-70
2023/08/10 04:42:17;;;;;;;4.65;1.10;;;;;;;15.44;69.84;100977.31;2073784;28;20129;-69
2023/08/10 04:43:19;;;;;;;5.05;1.60;;;;;;;15.41;69.95;100976.00;2082421;28;20030;-70
2023/08/10 04:44:20;;;;;;;5.82;2.05;;;;;;;15.37;69.83;100983.13;2066011;28;20914;-70
2023/08/10 04:45:24;;;;;;;3.97;1.90;;;;;;;15.38;69.97;100983.94;2066258;28;20066;-70
2023/08/10 04:46:26;;;;;;;7.47;2.25;;;;;;;15.40;69.83;100973.59;2074109;28;20085;-70
2023/08/10 04:47:30;;;;;;;8.82;1.83;;;;;;;15.41;69.72;100984.13;2065739;28;20110;-70
2023/08/10 04:48:32;;;;;;;4.28;1.88;;;;;;;15.42;69.67;100983.06;2057580;28;20051;-70
2023/08/10 04:49:34;;;;;;;3.83;1.75;;;;;;;15.42;69.84;100983.06;2057881;28;20046;-71
2023/08/10 04:50:35;;;;;;;2.97;1.48;;;;;;;15.40;69.70;100987.97;2068209;28;20049;-71
2023/08/10 04:51:39;;;;;;;4.68;2.25;;;;;;;15.36;69.64;100986.97;2082183;28;20030;-70
2023/08/10 04:52:43;;;;;;;3.88;1.30;;;;;;;15.40;70.10;100985.25;2065753;28;20050;-71
2023/08/10 04:53:47;;;;;;;3.45;1.45;;;;;;;15.46;69.78;100984.03;2066308;28;20034;-71
2023/08/10 04:54:49;;;;;;;5.90;1.30;;;;;;;15.50;69.84;100987.75;2074199;28;20046;-71